Portada
METAR-TAF:

METAR-TAF

Aeroports :

Nouméa La Tontouta, Nova Caledònia

latitud: 22-01S, longitud: 166-13E, altitud: 16 m

Observació

L'informe es va fer fa 31 minuts, a les 16:00 UTC
Vent 1 kt del Est
Temperatura 19°C
Humitat 94%
Pressió 1018 hPa
Visibilitat 10 km o més
sense núvols per sota de 1500 mi sense presència de cumulonimbus.

METAR: NWWW 271600Z AUTO 08001KT CAVOK 19/18 Q1018 NOSIG

Hora: 03:31 (16:31 UTC)

Pronòstic

L'informe es va fer fa 5 hores i 31 minuts, a les 11:00 UTC
Pronòstic vàlid del 27 a les 12 UTC al 28 a les 12 UTC
Vent 2 kt amb direcció variable
Visibilitat 10 km o més
Escasses núvols a una alçada de 5000 ft

TAF: NWWW 271100Z 2712/2812 VRB02KT 9999 FEW050

Observacions i pronòstics meteorològics de més de 4000 aeroports (METAR i TAF).

Les estacions disponibles són els punts grocs i vermells al mapa.

Posi el ratolí al punt desitjat per veure el nom de l'estació.

Feu clic per veure les observacions i els pronòstics meteorològics.

Per canviar el mapa: feu clic els botons verds amb una creu de color negre per apropar; al botó verd amb un guió per allunyar la imatge; o en les fletxes verdes per a mapes adjacents.


METAR-TAF: